Time;durP1;ratioP1;P1;durP2;ratioP2;P2;SDS_P1;SDS_P2;PMS_P1;PMS_P2;Temp;Humidity;BMP_temperature;BMP_pressure;BME280_temperature;BME280_humidity;BME280_pressure;Samples;Min_cycle;Max_cycle;Signal;HPM_P1;HPM_P2
2022/09/18 00:01:10;;;;;;;0.60;0.20;;;11.60;1.00;;;;;;6173773;23;20421;-79
2022/09/18 00:03:38;;;;;;;0.60;0.20;;;11.60;1.00;;;;;;6162962;23;20409;-79
2022/09/18 00:06:07;;;;;;;0.70;0.50;;;11.60;1.00;;;;;;6161846;23;20469;-79
2022/09/18 00:08:37;;;;;;;0.60;0.10;;;11.60;1.00;;;;;;6160732;23;20475;-79
2022/09/18 00:11:06;;;;;;;0.60;0.10;;;11.70;1.00;;;;;;6164919;23;20447;-81
2022/09/18 00:13:37;;;;;;;0.60;0.20;;;11.70;1.00;;;;;;6173509;23;20420;-81
2022/09/18 00:16:07;;;;;;;0.80;0.30;;;11.70;1.00;;;;;;6179832;23;20431;-77
2022/09/18 00:18:35;;;;;;;0.60;0.10;;;11.60;1.00;;;;;;6175979;23;20436;-77
2022/09/18 00:21:05;;;;;;;0.70;0.30;;;11.70;1.00;;;;;;6162700;23;20417;-80
2022/09/18 00:23:33;;;;;;;0.60;0.20;;;11.60;1.00;;;;;;6159032;23;20467;-77
2022/09/18 00:26:01;;;;;;;0.60;0.20;;;11.50;1.00;;;;;;6160285;23;20424;-78
2022/09/18 00:28:29;;;;;;;0.60;0.10;;;11.60;1.00;;;;;;6159657;23;20409;-77
2022/09/18 00:31:03;;;;;;;0.90;0.47;;;11.70;1.00;;;;;;6158698;23;20404;-78
2022/09/18 00:33:31;;;;;;;0.60;0.17;;;11.60;1.00;;;;;;6159515;23;20401;-80
2022/09/18 00:36:01;;;;;;;0.60;0.10;;;11.60;1.00;;;;;;6160065;23;20413;-79
2022/09/18 00:38:30;;;;;;;0.90;0.70;;;11.60;1.00;;;;;;6160074;23;20397;-80
2022/09/18 00:40:58;;;;;;;0.60;0.20;;;11.70;1.00;;;;;;6158789;23;20443;-80
2022/09/18 00:43:29;;;;;;;0.60;0.20;;;11.70;1.00;;;;;;6159035;23;20840;-79
2022/09/18 00:46:01;;;;;;;0.60;0.20;;;11.70;1.00;;;;;;6160010;23;20633;-80
2022/09/18 00:48:40;;;;;;;0.60;0.20;;;11.60;1.00;;;;;;6159589;23;20421;-79
2022/09/18 00:51:08;;;;;;;0.60;0.20;;;11.60;1.00;;;;;;6159247;23;20447;-79
2022/09/18 00:53:39;;;;;;;0.70;0.50;;;12.70;1.00;;;;;;6159328;23;20714;-80
2022/09/18 00:56:08;;;;;;;0.60;0.20;;;11.60;1.00;;;;;;6159590;23;20500;-80
2022/09/18 00:58:36;;;;;;;1.00;0.57;;;11.60;1.00;;;;;;6160064;23;20468;-80
2022/09/18 01:01:07;;;;;;;0.60;0.17;;;11.60;1.00;;;;;;6158587;23;20441;-79
2022/09/18 01:03:36;;;;;;;0.60;0.10;;;11.60;1.00;;;;;;6164161;23;20423;-78
2022/09/18 01:06:13;;;;;;;0.70;0.30;;;11.50;1.00;;;;;;6175970;23;20778;-80
2022/09/18 01:08:54;;;;;;;0.60;0.23;;;11.50;1.00;;;;;;6160354;23;20487;-78
2022/09/18 01:11:31;;;;;;;1.03;0.90;;;11.40;1.00;;;;;;6158028;23;20460;-79
2022/09/18 01:14:13;;;;;;;1.10;0.50;;;11.40;1.00;;;;;;6159361;23;20416;-78
2022/09/18 01:16:50;;;;;;;0.60;0.10;;;11.40;1.00;;;;;;6164189;23;20413;-80
2022/09/18 01:19:36;;;;;;;0.60;0.20;;;11.40;1.00;;;;;;6163341;23;20397;-81
2022/09/18 01:22:19;;;;;;;0.70;0.30;;;11.50;1.00;;;;;;6165682;23;20417;-79
2022/09/18 01:24:59;;;;;;;0.80;0.70;;;11.60;1.00;;;;;;6161239;23;20444;-79
2022/09/18 01:27:35;;;;;;;0.60;0.10;;;11.60;1.00;;;;;;6160312;23;20444;-79
2022/09/18 01:30:07;;;;;;;0.70;0.50;;;11.40;1.00;;;;;;6159430;23;20468;-80
2022/09/18 01:32:43;;;;;;;0.60;0.10;;;11.40;1.00;;;;;;6172696;23;20429;-78
2022/09/18 01:35:18;;;;;;;0.60;0.20;;;11.70;1.00;;;;;;6180551;23;20491;-79
2022/09/18 01:38:11;;;;;;;0.60;0.10;;;11.40;1.00;;;;;;6179473;23;20464;-79
2022/09/18 01:40:41;;;;;;;0.60;0.20;;;;;;;;;;6166294;23;20405;-81
2022/09/18 01:43:14;;;;;;;0.60;0.10;;;11.50;1.00;;;;;;6159089;23;20417;-79
2022/09/18 01:45:46;;;;;;;0.60;0.10;;;11.60;1.00;;;;;;6159373;23;20397;-80
2022/09/18 01:48:19;;;;;;;0.60;0.10;;;11.60;1.00;;;;;;6162022;23;20587;-80
2022/09/18 01:50:54;;;;;;;0.60;0.30;;;11.60;1.00;;;;;;6175327;23;20433;-79
2022/09/18 01:53:28;;;;;;;0.60;0.10;;;11.60;1.00;;;;;;6172173;23;20409;-79
2022/09/18 01:56:02;;;;;;;0.83;0.33;;;11.60;1.00;;;;;;6174912;23;20404;-79
2022/09/18 01:58:34;;;;;;;0.60;0.10;;;11.60;1.00;;;;;;6178666;23;20409;-78
2022/09/18 02:01:08;;;;;;;0.60;0.10;;;11.70;1.00;;;;;;6177543;23;20443;-79
2022/09/18 02:03:39;;;;;;;0.60;0.10;;;11.70;1.00;;;;;;6174410;23;20485;-79
2022/09/18 02:06:10;;;;;;;0.60;0.20;;;11.70;1.00;;;;;;6164605;23;20409;-80
2022/09/18 02:08:42;;;;;;;0.60;0.10;;;11.70;1.00;;;;;;6162961;23;20445;-79
2022/09/18 02:11:13;;;;;;;0.60;0.10;;;11.70;1.00;;;;;;6164250;23;20464;-80
2022/09/18 02:13:46;;;;;;;0.60;0.10;;;11.70;1.00;;;;;;6175086;23;20392;-79
2022/09/18 02:16:19;;;;;;;0.60;0.10;;;11.60;1.00;;;;;;6178726;23;20377;-78
2022/09/18 02:18:51;;;;;;;0.70;0.20;;;11.60;1.00;;;;;;6177864;23;20389;-78
2022/09/18 02:21:25;;;;;;;0.70;0.53;;;11.60;1.00;;;;;;6177772;23;20460;-79
2022/09/18 02:23:57;;;;;;;0.60;0.20;;;11.60;1.00;;;;;;6166968;23;20384;-80
2022/09/18 02:26:26;;;;;;;0.60;0.10;;;11.80;1.00;;;;;;6167758;23;20463;-78
2022/09/18 02:28:56;;;;;;;0.60;0.23;;;11.50;1.00;;;;;;6164808;23;20492;-79
2022/09/18 02:31:25;;;;;;;0.60;0.20;;;11.50;1.00;;;;;;6163831;23;20562;-79
2022/09/18 02:33:53;;;;;;;0.70;0.40;;;11.50;1.00;;;;;;6162536;23;20417;-80
2022/09/18 02:36:42;;;;;;;0.97;0.40;;;11.50;1.00;;;;;;6166070;23;20420;-78
2022/09/18 02:39:30;;;;;;;0.70;0.50;;;11.60;1.00;;;;;;6171041;23;20476;-81
2022/09/18 02:42:08;;;;;;;0.70;0.30;;;11.60;1.00;;;;;;6166335;23;20503;-78
2022/09/18 02:44:44;;;;;;;0.60;0.20;;;11.60;1.00;;;;;;6166044;23;20389;-80
2022/09/18 02:47:24;;;;;;;0.60;0.50;;;11.60;1.00;;;;;;6167280;23;20496;-81
2022/09/18 02:49:57;;;;;;;0.60;0.10;;;11.60;1.00;;;;;;6165718;23;20393;-80
2022/09/18 02:52:29;;;;;;;0.60;0.10;;;11.60;1.00;;;;;;6166596;23;20437;-77
2022/09/18 02:55:02;;;;;;;2.70;1.07;;;11.60;1.00;;;;;;6163896;23;20414;-78
2022/09/18 02:57:35;;;;;;;2.00;0.73;;;11.60;1.00;;;;;;6166456;23;20428;-77
2022/09/18 03:00:06;;;;;;;0.60;0.20;;;11.60;1.00;;;;;;6175774;23;20417;-78
2022/09/18 03:02:37;;;;;;;0.60;0.10;;;11.60;1.00;;;;;;6171644;23;20429;-78
2022/09/18 03:05:06;;;;;;;0.60;0.10;;;11.60;1.00;;;;;;6165370;23;20393;-81
2022/09/18 03:07:34;;;;;;;0.60;0.10;;;11.70;1.00;;;;;;6164679;23;20457;-78
2022/09/18 03:10:02;;;;;;;0.60;0.10;;;11.70;1.00;;;;;;6164016;23;20441;-80
2022/09/18 03:12:30;;;;;;;0.60;0.10;;;11.70;1.00;;;;;;6165971;23;20436;-80
2022/09/18 03:14:58;;;;;;;0.60;0.20;;;11.70;1.00;;;;;;6166797;23;20440;-78
2022/09/18 03:17:25;;;;;;;0.60;0.20;;;11.70;1.00;;;;;;6165476;23;20409;-79
2022/09/18 03:19:55;;;;;;;0.60;0.20;;;11.70;1.00;;;;;;6165733;23;20413;-81
2022/09/18 03:22:23;;;;;;;0.60;0.10;;;11.70;1.00;;;;;;6166285;23;20417;-78
2022/09/18 03:24:50;;;;;;;0.60;0.10;;;11.70;1.00;;;;;;6164029;23;20940;-79
2022/09/18 03:27:18;;;;;;;0.83;0.33;;;11.70;1.00;;;;;;6176517;23;20397;-79
2022/09/18 03:29:46;;;;;;;0.70;0.20;;;11.70;1.00;;;;;;6167822;23;20455;-79
2022/09/18 03:32:14;;;;;;;0.60;0.10;;;11.70;1.00;;;;;;6164836;23;20425;-78
2022/09/18 03:34:42;;;;;;;1.27;1.17;;;11.70;1.00;;;;;;6162896;23;20417;-79
2022/09/18 03:37:11;;;;;;;0.60;0.20;;;13.10;1.00;;;;;;6163627;23;20425;-78
2022/09/18 03:39:39;;;;;;;0.60;0.10;;;11.80;1.00;;;;;;6165020;23;20404;-78
2022/09/18 03:42:07;;;;;;;0.60;0.20;;;11.80;1.00;;;;;;6165002;23;20444;-78
2022/09/18 03:44:35;;;;;;;0.60;0.10;;;11.80;1.00;;;;;;6167683;23;20432;-78
2022/09/18 03:47:03;;;;;;;0.60;0.20;;;11.80;1.00;;;;;;6168711;23;20393;-77
2022/09/18 03:49:30;;;;;;;0.60;0.30;;;11.70;1.00;;;;;;6171207;23;20441;-77
2022/09/18 03:51:58;;;;;;;0.70;0.30;;;11.80;1.00;;;;;;6172866;23;20459;-77
2022/09/18 03:54:27;;;;;;;0.60;0.20;;;13.90;1.00;;;;;;6172107;23;20401;-77
2022/09/18 03:56:55;;;;;;;0.60;0.23;;;11.90;1.00;;;;;;6171835;23;20417;-77
2022/09/18 03:59:23;;;;;;;0.60;0.20;;;11.90;1.00;;;;;;6172147;23;20393;-78
2022/09/18 04:01:51;;;;;;;0.60;0.10;;;11.90;1.00;;;;;;6171216;23;20477;-78
2022/09/18 04:04:19;;;;;;;0.60;0.10;;;11.90;1.00;;;;;;6171327;23;20936;-77
2022/09/18 04:06:46;;;;;;;0.60;0.10;;;11.90;1.00;;;;;;6171196;23;20397;-78
2022/09/18 04:09:15;;;;;;;0.63;0.27;;;12.00;1.00;;;;;;6170503;23;20484;-78
2022/09/18 04:11:44;;;;;;;0.70;0.30;;;11.90;1.00;;;;;;6171411;23;20476;-78
2022/09/18 04:14:13;;;;;;;0.60;0.10;;;11.90;1.00;;;;;;6171855;23;20429;-77
2022/09/18 04:16:41;;;;;;;0.60;0.10;;;11.90;1.00;;;;;;6173014;23;20444;-79
2022/09/18 04:19:09;;;;;;;1.00;0.50;;;11.90;1.00;;;;;;6172393;23;20416;-78
2022/09/18 04:21:37;;;;;;;22.33;2.30;;;11.90;1.00;;;;;;6163700;23;20436;-78
2022/09/18 04:24:06;;;;;;;0.60;0.30;;;11.90;1.00;;;;;;6162194;23;20500;-79
2022/09/18 04:26:34;;;;;;;0.60;0.10;;;11.90;1.00;;;;;;6162017;23;20933;-79
2022/09/18 04:29:03;;;;;;;0.60;0.10;;;12.00;1.00;;;;;;6162574;23;20532;-79
2022/09/18 04:31:31;;;;;;;0.60;0.10;;;12.00;1.00;;;;;;6162012;23;20428;-79
2022/09/18 04:33:59;;;;;;;0.60;0.10;;;12.00;1.00;;;;;;6161482;23;20405;-79
2022/09/18 04:36:27;;;;;;;0.60;0.10;;;12.00;1.00;;;;;;6162452;23;20386;-78
2022/09/18 04:38:54;;;;;;;0.60;0.10;;;12.00;1.00;;;;;;6167946;23;20425;-77
2022/09/18 04:41:22;;;;;;;0.60;0.20;;;12.00;1.00;;;;;;6174296;23;20545;-79
2022/09/18 04:43:50;;;;;;;0.60;0.20;;;12.00;1.00;;;;;;6162045;23;20418;-79
2022/09/18 04:46:19;;;;;;;0.60;0.10;;;12.10;1.00;;;;;;6162082;23;20397;-79
2022/09/18 04:48:49;;;;;;;0.60;0.10;;;12.10;1.00;;;;;;6168389;23;20432;-78
2022/09/18 04:51:17;;;;;;;0.60;0.10;;;12.00;1.00;;;;;;6175038;23;20467;-78
2022/09/18 04:53:45;;;;;;;0.60;0.10;;;11.90;1.00;;;;;;6176048;23;20989;-78
2022/09/18 04:56:12;;;;;;;0.60;0.10;;;11.90;1.00;;;;;;6163600;23;20735;-79
2022/09/18 04:58:40;;;;;;;0.60;0.10;;;12.00;1.00;;;;;;6162728;23;20405;-79
2022/09/18 05:01:08;;;;;;;0.60;0.10;;;12.00;1.00;;;;;;6163613;23;20456;-78
2022/09/18 05:03:37;;;;;;;0.60;0.10;;;12.00;1.00;;;;;;6172409;23;20489;-80
2022/09/18 05:06:06;;;;;;;0.60;0.10;;;12.00;1.00;;;;;;6178571;23;20393;-77
2022/09/18 05:08:34;;;;;;;0.60;0.10;;;12.00;1.00;;;;;;6171415;23;20455;-78
2022/09/18 05:11:03;;;;;;;1.90;0.63;;;12.10;1.00;;;;;;6163495;23;20408;-78
2022/09/18 05:13:31;;;;;;;0.60;0.10;;;12.10;1.00;;;;;;6180328;23;20389;-79
2022/09/18 05:15:59;;;;;;;0.60;0.10;;;12.10;1.00;;;;;;6180567;23;20397;-78
2022/09/18 05:18:27;;;;;;;0.60;0.10;;;12.20;1.00;;;;;;6179608;23;20409;-78
2022/09/18 05:20:56;;;;;;;0.60;0.10;;;12.20;1.00;;;;;;6173180;23;20423;-79
2022/09/18 05:23:24;;;;;;;0.60;0.10;;;12.10;1.00;;;;;;6175123;23;20457;-78
2022/09/18 05:25:51;;;;;;;0.60;0.50;;;12.10;1.00;;;;;;6180493;23;20404;-78
2022/09/18 05:28:19;;;;;;;0.60;0.10;;;12.10;1.00;;;;;;6180571;23;20468;-78
2022/09/18 05:30:47;;;;;;;0.60;0.10;;;12.20;1.00;;;;;;6179515;23;20437;-78
2022/09/18 05:33:15;;;;;;;0.60;0.10;;;12.20;1.00;;;;;;6177105;23;20413;-79
2022/09/18 05:35:43;;;;;;;0.60;0.10;;;12.20;1.00;;;;;;6177427;23;20452;-79
2022/09/18 05:38:12;;;;;;;0.60;0.10;;;12.20;1.00;;;;;;6175721;23;20417;-79
2022/09/18 05:40:40;;;;;;;0.60;0.10;;;;;;;;;;6165299;23;20401;-80
2022/09/18 05:43:09;;;;;;;0.60;0.10;;;12.10;1.00;;;;;;6162108;23;20381;-80
2022/09/18 05:45:37;;;;;;;0.60;0.10;;;12.10;1.00;;;;;;6161221;23;20409;-80
2022/09/18 05:48:06;;;;;;;0.60;0.10;;;12.10;1.00;;;;;;6161943;23;20409;-78
2022/09/18 05:50:36;;;;;;;0.60;0.10;;;12.10;1.00;;;;;;6162387;23;21008;-78
2022/09/18 05:53:05;;;;;;;0.60;0.10;;;12.00;1.00;;;;;;6160628;23;20496;-79
2022/09/18 05:55:35;;;;;;;0.60;0.10;;;12.00;1.00;;;;;;6161192;23;20887;-78
2022/09/18 05:58:04;;;;;;;0.60;0.10;;;12.00;1.00;;;;;;6161084;23;20731;-78
2022/09/18 06:00:34;;;;;;;0.60;0.10;;;12.00;1.00;;;;;;6162262;23;20417;-79
2022/09/18 06:03:03;;;;;;;0.60;0.10;;;12.00;1.00;;;;;;6161723;23;20476;-79
2022/09/18 06:05:33;;;;;;;0.60;0.10;;;12.00;1.00;;;;;;6163454;23;20480;-78
2022/09/18 06:08:02;;;;;;;0.60;0.10;;;12.00;1.00;;;;;;6164334;23;20409;-80
2022/09/18 06:10:32;;;;;;;0.60;0.10;;;12.00;1.00;;;;;;6163882;23;20443;-78
2022/09/18 06:13:02;;;;;;;0.60;0.10;;;12.10;1.00;;;;;;6162585;23;20417;-80
2022/09/18 06:15:30;;;;;;;1.93;0.30;;;12.10;1.00;;;;;;6160954;23;20401;-79
2022/09/18 06:17:57;;;;;;;0.60;0.10;;;12.00;1.00;;;;;;6164071;23;20421;-78
2022/09/18 06:20:26;;;;;;;0.60;0.10;;;12.10;1.00;;;;;;6162480;23;20488;-78
2022/09/18 06:22:54;;;;;;;0.60;0.10;;;12.10;1.00;;;;;;6163999;23;20417;-78
2022/09/18 06:25:22;;;;;;;0.60;0.20;;;12.10;1.00;;;;;;6164893;23;20413;-79
2022/09/18 06:27:53;;;;;;;0.60;0.20;;;12.10;1.00;;;;;;6177252;23;20412;-78
2022/09/18 06:30:22;;;;;;;0.70;0.20;;;12.10;1.00;;;;;;6176113;23;20436;-77
2022/09/18 06:32:50;;;;;;;0.60;0.10;;;12.10;1.00;;;;;;6176123;23;20417;-77
2022/09/18 06:35:18;;;;;;;0.60;0.10;;;12.10;1.00;;;;;;6173480;23;20405;-77
2022/09/18 06:37:45;;;;;;;0.60;0.10;;;12.10;1.00;;;;;;6176513;23;20477;-79
2022/09/18 06:40:13;;;;;;;0.60;0.10;;;12.00;1.00;;;;;;6166923;23;20405;-79
2022/09/18 06:42:41;;;;;;;1.07;0.60;;;12.00;1.00;;;;;;6163088;23;20456;-79
2022/09/18 06:45:13;;;;;;;0.60;0.10;;;12.00;1.00;;;;;;6164546;23;20468;-79
2022/09/18 06:47:42;;;;;;;0.60;0.10;;;;;;;;;;6163190;23;20409;-79
2022/09/18 06:50:11;;;;;;;0.60;0.13;;;12.10;1.00;;;;;;6163839;23;20437;-80
2022/09/18 06:52:39;;;;;;;0.60;0.20;;;12.10;1.00;;;;;;6161692;23;20439;-79
2022/09/18 06:55:07;;;;;;;0.60;0.10;;;12.10;1.00;;;;;;6161403;23;20484;-80
2022/09/18 06:57:35;;;;;;;0.60;0.10;;;12.10;1.00;;;;;;6159712;23;20417;-78
2022/09/18 07:00:08;;;;;;;0.60;0.20;;;12.20;1.00;;;;;;6161505;23;20444;-80
2022/09/18 07:02:36;;;;;;;0.87;0.50;;;12.30;1.00;;;;;;6161622;23;20444;-79
2022/09/18 07:05:06;;;;;;;0.60;0.10;;;12.30;1.00;;;;;;6160715;23;20428;-79
2022/09/18 07:07:34;;;;;;;0.60;0.10;;;12.50;1.00;;;;;;6161308;23;20393;-79
2022/09/18 07:10:03;;;;;;;0.60;0.10;;;12.50;1.00;;;;;;6161028;23;20465;-79
2022/09/18 07:12:35;;;;;;;0.60;0.20;;;12.50;1.00;;;;;;6160793;23;20491;-78
2022/09/18 07:15:04;;;;;;;0.60;0.10;;;12.50;1.00;;;;;;6161861;23;20409;-79
2022/09/18 07:17:33;;;;;;;2.30;0.40;;;12.60;1.00;;;;;;6160095;23;20405;-78
2022/09/18 07:20:01;;;;;;;0.60;0.10;;;12.50;1.00;;;;;;6161932;23;20411;-78
2022/09/18 07:22:30;;;;;;;0.60;0.10;;;12.50;1.00;;;;;;6161546;23;20425;-79
2022/09/18 07:24:58;;;;;;;0.80;0.33;;;12.50;1.00;;;;;;6162252;23;20418;-80
2022/09/18 07:27:27;;;;;;;0.60;0.10;;;12.50;1.00;;;;;;6168551;23;20415;-77
2022/09/18 07:29:56;;;;;;;0.60;0.20;;;12.50;1.00;;;;;;6175232;23;20401;-77
2022/09/18 07:32:24;;;;;;;0.60;0.10;;;12.50;1.00;;;;;;6164546;23;20417;-79
2022/09/18 07:34:51;;;;;;;0.60;0.20;;;12.50;1.00;;;;;;6161684;23;20459;-80
2022/09/18 07:37:19;;;;;;;0.60;0.10;;;12.50;1.00;;;;;;6159836;23;20397;-78
2022/09/18 07:39:49;;;;;;;0.60;0.10;;;12.50;1.00;;;;;;6164202;23;20422;-79
2022/09/18 07:42:17;;;;;;;0.60;0.10;;;12.60;1.00;;;;;;6166417;23;20430;-78
2022/09/18 07:44:45;;;;;;;0.60;0.10;;;12.60;1.00;;;;;;6164632;23;20466;-79
2022/09/18 07:47:13;;;;;;;0.60;0.20;;;12.60;1.00;;;;;;6165321;23;20495;-78
2022/09/18 07:49:41;;;;;;;0.60;0.10;;;12.50;1.00;;;;;;6160627;23;20405;-78
2022/09/18 07:52:09;;;;;;;0.70;0.57;;;12.50;1.00;;;;;;6158357;23;20449;-77
2022/09/18 07:54:37;;;;;;;0.60;0.10;;;12.40;1.00;;;;;;6161598;23;20463;-78
2022/09/18 07:57:06;;;;;;;0.60;0.10;;;12.40;1.00;;;;;;6161254;23;20475;-79
2022/09/18 07:59:34;;;;;;;0.60;0.10;;;12.50;1.00;;;;;;6161764;23;20416;-79
2022/09/18 08:02:03;;;;;;;0.60;0.10;;;12.50;1.00;;;;;;6160620;23;20436;-78
2022/09/18 08:04:31;;;;;;;0.60;0.10;;;12.30;1.00;;;;;;6163322;23;20405;-80
2022/09/18 08:07:03;;;;;;;0.60;0.10;;;12.30;1.00;;;;;;6164581;23;20397;-81
2022/09/18 08:09:31;;;;;;;0.60;0.10;;;12.30;1.00;;;;;;6163878;23;20409;-79
2022/09/18 08:11:59;;;;;;;0.60;0.10;;;;;;;;;;6164207;23;20448;-77
2022/09/18 08:14:28;;;;;;;0.60;0.10;;;12.40;1.00;;;;;;6160961;23;20471;-78
2022/09/18 08:16:58;;;;;;;0.60;0.10;;;12.50;1.00;;;;;;6164714;23;20955;-81
2022/09/18 08:19:25;;;;;;;0.60;0.10;;;12.50;1.00;;;;;;6163386;23;20423;-79
2022/09/18 08:21:53;;;;;;;0.60;0.10;;;12.60;1.00;;;;;;6162927;23;20486;-77
2022/09/18 08:24:21;;;;;;;0.60;0.10;;;12.60;1.00;;;;;;6161791;23;20491;-80
2022/09/18 08:26:49;;;;;;;0.60;0.10;;;12.70;1.00;;;;;;6162316;23;20461;-79
2022/09/18 08:29:18;;;;;;;0.60;0.10;;;12.70;1.00;;;;;;6162468;23;20412;-78
2022/09/18 08:31:47;;;;;;;0.60;0.10;;;12.70;1.00;;;;;;6161248;23;20456;-80
2022/09/18 08:34:15;;;;;;;0.60;0.20;;;12.70;1.00;;;;;;6160323;23;20409;-78
2022/09/18 08:36:43;;;;;;;1.47;1.37;;;12.70;1.00;;;;;;6161188;23;20409;-81
2022/09/18 08:39:11;;;;;;;0.60;0.10;;;12.70;1.00;;;;;;6161621;23;20425;-80
2022/09/18 08:41:56;;;;;;;0.60;0.20;;;12.60;1.00;;;;;;6168882;23;20769;-80
2022/09/18 08:44:28;;;;;;;0.60;0.10;;;12.60;1.00;;;;;;6173412;23;20448;-79
2022/09/18 08:47:04;;;;;;;0.60;0.10;;;12.70;1.00;;;;;;6173973;23;20409;-79
2022/09/18 08:49:37;;;;;;;0.60;0.10;;;12.70;1.00;;;;;;6177673;23;20463;-78
2022/09/18 08:52:11;;;;;;;0.60;0.17;;;12.90;1.00;;;;;;6174891;23;20448;-78
2022/09/18 08:54:46;;;;;;;0.60;0.10;;;12.90;1.00;;;;;;6174699;23;20392;-80
2022/09/18 08:57:18;;;;;;;0.60;0.10;;;12.90;1.00;;;;;;6179050;23;20412;-79
2022/09/18 08:59:50;;;;;;;0.60;0.10;;;13.00;1.00;;;;;;6173498;23;20420;-80
2022/09/18 09:02:32;;;;;;;0.60;0.10;;;13.00;1.00;;;;;;6171616;23;20410;-81
2022/09/18 09:05:06;;;;;;;0.70;0.23;;;13.00;1.00;;;;;;6164375;23;20417;-81
2022/09/18 09:08:11;;;;;;;0.60;0.10;;;13.00;1.00;;;;;;6157459;23;20416;-79
2022/09/18 09:10:43;;;;;;;0.87;0.40;;;;;;;;;;6109682;23;20767;-78
2022/09/18 09:13:49;;;;;;;0.80;0.30;;;13.00;1.00;;;;;;6157808;23;20456;-79
2022/09/18 09:16:23;;;;;;;0.70;0.20;;;13.10;1.00;;;;;;6164640;23;20407;-80
2022/09/18 09:18:59;;;;;;;0.60;0.13;;;13.10;1.00;;;;;;6176407;23;20407;-80
2022/09/18 09:21:50;;;;;;;0.60;0.20;;;13.20;1.00;;;;;;6177230;23;20507;-83
2022/09/18 09:24:30;;;;;;;0.70;0.20;;;13.20;1.00;;;;;;6174914;23;20423;-80
2022/09/18 09:27:02;;;;;;;0.60;0.20;;;13.20;1.00;;;;;;6172905;23;20408;-80
2022/09/18 09:29:35;;;;;;;0.67;0.37;;;13.20;1.00;;;;;;6166724;23;20421;-79
2022/09/18 09:32:09;;;;;;;0.80;0.40;;;13.10;1.00;;;;;;6164722;23;20448;-79
2022/09/18 09:34:43;;;;;;;0.67;0.20;;;13.10;1.00;;;;;;6157365;23;20448;-79
2022/09/18 09:37:16;;;;;;;0.90;0.47;;;13.00;1.00;;;;;;6158254;23;20393;-78
2022/09/18 09:39:51;;;;;;;0.70;0.20;;;13.10;1.00;;;;;;6158341;23;20472;-78
2022/09/18 09:42:24;;;;;;;0.60;0.10;;;13.20;1.00;;;;;;6159836;23;20455;-82
2022/09/18 09:44:58;;;;;;;0.60;0.20;;;13.30;1.00;;;;;;6176228;23;20383;-80
2022/09/18 09:47:34;;;;;;;0.60;0.10;;;13.30;1.00;;;;;;6173775;23;20420;-80
2022/09/18 09:50:31;;;;;;;0.60;0.10;;;13.40;1.00;;;;;;6169556;23;20389;-78
2022/09/18 09:53:05;;;;;;;0.60;0.10;;;13.50;1.00;;;;;;6168126;23;20483;-80
2022/09/18 09:55:41;;;;;;;0.60;0.10;;;13.50;1.00;;;;;;6173008;23;20386;-80
2022/09/18 09:58:18;;;;;;;0.60;0.10;;;13.60;1.00;;;;;;6166816;23;20393;-79
2022/09/18 10:00:52;;;;;;;0.60;0.10;;;13.70;1.00;;;;;;6161907;23;20401;-78
2022/09/18 10:03:38;;;;;;;0.80;0.37;;;13.70;1.00;;;;;;6166999;23;20448;-78
2022/09/18 10:06:19;;;;;;;0.70;0.30;;;13.70;1.00;;;;;;6170220;23;20405;-79
2022/09/18 10:08:50;;;;;;;0.60;0.10;;;;;;;;;;6174459;23;20463;-78
2022/09/18 10:11:18;;;;;;;0.60;0.10;;;13.80;1.00;;;;;;6173366;23;20473;-80
2022/09/18 10:13:51;;;;;;;0.60;0.13;;;13.80;1.00;;;;;;6173317;23;20405;-79
2022/09/18 10:16:23;;;;;;;0.60;0.10;;;13.90;1.00;;;;;;6172422;23;20437;-80
2022/09/18 10:18:51;;;;;;;0.60;0.37;;;14.00;1.00;;;;;;6171377;23;20409;-79
2022/09/18 10:21:23;;;;;;;0.60;0.10;;;14.10;1.00;;;;;;6175956;23;20429;-80
2022/09/18 10:23:56;;;;;;;0.60;0.10;;;14.10;1.00;;;;;;6170227;23;20405;-79
2022/09/18 10:26:30;;;;;;;0.60;0.10;;;14.20;1.00;;;;;;6171981;23;20405;-81
2022/09/18 10:28:59;;;;;;;0.60;0.10;;;14.30;1.00;;;;;;6173168;23;20442;-79
2022/09/18 10:31:46;;;;;;;0.60;0.10;;;14.40;1.00;;;;;;6170953;23;20462;-82
2022/09/18 10:34:32;;;;;;;0.70;0.50;;;14.40;1.00;;;;;;6174605;23;20400;-82
2022/09/18 10:37:01;;;;;;;0.60;0.10;;;14.40;1.00;;;;;;6172300;23;20451;-80
2022/09/18 10:39:32;;;;;;;0.60;0.10;;;14.40;1.00;;;;;;6175254;23;20397;-82
2022/09/18 10:42:01;;;;;;;1.23;0.30;;;14.30;1.00;;;;;;6170672;23;20409;-78
2022/09/18 10:44:35;;;;;;;0.70;0.50;;;14.30;1.00;;;;;;6167371;23;20394;-81
2022/09/18 10:47:07;;;;;;;0.60;0.10;;;14.00;1.00;;;;;;6171219;23;20393;-80
2022/09/18 10:49:39;;;;;;;0.70;0.33;;;14.00;1.00;;;;;;6171234;23;20381;-80
2022/09/18 10:52:30;;;;;;;0.60;0.30;;;13.80;1.00;;;;;;6177038;23;20449;-80
2022/09/18 10:55:11;;;;;;;22.93;1.23;;;13.70;1.00;;;;;;6176445;23;20420;-81
2022/09/18 10:57:42;;;;;;;0.60;0.10;;;13.70;1.00;;;;;;6174177;23;20404;-82
2022/09/18 11:00:33;;;;;;;0.60;0.10;;;13.70;1.00;;;;;;6173310;23;20385;-79
2022/09/18 11:03:20;;;;;;;0.60;0.10;;;13.70;1.00;;;;;;6172625;23;20418;-81
2022/09/18 11:05:52;;;;;;;0.60;0.10;;;13.70;1.00;;;;;;6171278;23;20409;-80
2022/09/18 11:08:33;;;;;;;0.60;0.10;;;13.80;1.00;;;;;;6175727;23;20401;-80
2022/09/18 11:11:05;;;;;;;0.60;0.20;;;13.80;1.00;;;;;;6172346;23;20385;-82
2022/09/18 11:13:41;;;;;;;0.60;0.20;;;13.80;1.00;;;;;;6173489;23;20452;-81
2022/09/18 11:16:09;;;;;;;0.60;0.20;;;13.80;1.00;;;;;;6174631;23;20416;-81
2022/09/18 11:18:38;;;;;;;0.60;0.10;;;13.90;1.00;;;;;;6175484;23;20400;-81
2022/09/18 11:21:07;;;;;;;0.60;0.20;;;14.10;1.00;;;;;;6173676;23;20440;-81
2022/09/18 11:23:37;;;;;;;0.60;0.10;;;14.20;1.00;;;;;;6176023;23;20423;-83
2022/09/18 11:26:19;;;;;;;0.60;0.20;;;14.20;1.00;;;;;;6177122;23;20378;-85
2022/09/18 11:29:01;;;;;;;0.60;0.20;;;14.10;1.00;;;;;;6178396;23;20714;-81
2022/09/18 11:31:39;;;;;;;0.60;0.10;;;14.20;1.00;;;;;;6174409;23;20464;-82
2022/09/18 11:34:24;;;;;;;0.90;0.57;;;14.10;1.00;;;;;;6173704;23;20897;-84
2022/09/18 11:36:53;;;;;;;0.60;0.20;;;;;;;;;;6176411;23;20398;-83
2022/09/18 11:39:29;;;;;;;0.70;0.50;;;14.10;1.00;;;;;;6174226;23;20433;-80
2022/09/18 11:41:57;;;;;;;0.60;0.10;;;;;;;;;;6178035;23;20416;-84
2022/09/18 11:44:30;;;;;;;0.60;0.10;;;14.20;1.00;;;;;;6176261;23;20424;-82
2022/09/18 11:47:30;;;;;;;0.60;0.10;;;14.20;1.00;;;;;;6176799;23;20397;-83
2022/09/18 11:50:11;;;;;;;0.60;0.10;;;14.20;1.00;;;;;;6172660;23;20401;-80
2022/09/18 11:52:43;;;;;;;0.60;0.10;;;14.20;1.00;;;;;;6171402;23;20491;-79
2022/09/18 11:55:25;;;;;;;0.60;0.20;;;14.20;1.00;;;;;;6175686;23;20480;-82
2022/09/18 11:57:57;;;;;;;0.73;0.30;;;14.10;1.00;;;;;;6165678;23;20409;-82
2022/09/18 12:00:29;;;;;;;0.70;0.30;;;14.10;1.00;;;;;;6167566;23;20902;-80
2022/09/18 12:03:07;;;;;;;0.60;0.10;;;14.10;1.00;;;;;;6164449;23;20433;-80
2022/09/18 12:05:50;;;;;;;1.57;0.70;;;14.10;1.00;;;;;;6162021;23;20400;-80
2022/09/18 12:08:26;;;;;;;0.60;0.30;;;14.10;1.00;;;;;;6175960;23;20389;-84
2022/09/18 12:11:07;;;;;;;0.60;0.30;;;14.20;1.00;;;;;;6173610;23;20400;-80
2022/09/18 12:13:53;;;;;;;0.60;0.20;;;14.20;1.00;;;;;;6166754;23;20448;-80
2022/09/18 12:16:28;;;;;;;0.60;0.13;;;14.20;1.00;;;;;;6166464;23;20411;-79
2022/09/18 12:19:03;;;;;;;0.60;0.27;;;14.20;1.00;;;;;;6166985;23;20381;-82
2022/09/18 12:21:39;;;;;;;0.60;0.10;;;14.20;1.00;;;;;;6166925;23;20427;-80
2022/09/18 12:24:14;;;;;;;0.60;0.13;;;14.20;1.00;;;;;;6169052;23;20472;-81
2022/09/18 12:26:52;;;;;;;0.60;0.20;;;14.30;1.00;;;;;;6168481;23;20388;-82
2022/09/18 12:29:31;;;;;;;0.60;0.10;;;14.40;1.00;;;;;;6168671;23;20404;-81
2022/09/18 12:32:08;;;;;;;0.60;0.10;;;14.40;1.00;;;;;;6168627;23;20432;-79
2022/09/18 12:34:45;;;;;;;0.70;0.20;;;14.40;1.00;;;;;;6167591;23;20428;-82
2022/09/18 12:37:25;;;;;;;0.70;0.70;;;14.50;1.00;;;;;;6169948;23;20520;-80
2022/09/18 12:40:11;;;;;;;0.60;0.10;;;14.50;1.00;;;;;;6168853;23;20377;-81
2022/09/18 12:42:55;;;;;;;0.60;0.10;;;14.60;1.00;;;;;;6167996;23;20484;-79
2022/09/18 12:45:42;;;;;;;0.70;0.30;;;14.60;1.00;;;;;;6170872;23;20444;-80
2022/09/18 12:48:25;;;;;;;0.60;0.20;;;14.50;1.00;;;;;;6176078;23;20416;-82
2022/09/18 12:51:21;;;;;;;0.60;0.20;;;14.50;1.00;;;;;;6181840;23;20394;-82
2022/09/18 12:54:00;;;;;;;0.60;0.10;;;14.60;1.00;;;;;;6177211;23;20464;-80
2022/09/18 12:56:47;;;;;;;0.60;0.10;;;14.60;1.00;;;;;;6172055;23;20703;-82
2022/09/18 12:59:33;;;;;;;0.60;0.20;;;14.50;1.00;;;;;;6171162;23;20409;-80
2022/09/18 13:02:14;;;;;;;0.60;0.10;;;14.40;1.00;;;;;;6169230;23;20435;-79
2022/09/18 13:04:47;;;;;;;0.60;0.10;;;14.40;1.00;;;;;;6166190;23;20479;-80
2022/09/18 13:07:20;;;;;;;0.60;0.20;;;14.40;1.00;;;;;;6168626;23;20393;-80
2022/09/18 13:09:54;;;;;;;0.90;0.80;;;14.40;1.00;;;;;;6169989;23;20432;-81
2022/09/18 13:12:28;;;;;;;0.60;0.20;;;14.40;1.00;;;;;;6168409;23;20425;-80
2022/09/18 13:15:02;;;;;;;0.60;0.10;;;14.20;1.00;;;;;;6177268;23;20450;-83
2022/09/18 13:17:35;;;;;;;0.60;0.30;;;14.20;1.00;;;;;;6171866;23;20391;-80
2022/09/18 13:20:11;;;;;;;0.60;0.10;;;14.30;1.00;;;;;;6174236;23;20396;-79
2022/09/18 13:22:40;;;;;;;0.70;0.60;;;14.30;1.00;;;;;;6164358;23;20432;-80
2022/09/18 13:25:21;;;;;;;0.60;0.30;;;14.30;1.00;;;;;;6166680;23;20385;-79
2022/09/18 13:27:52;;;;;;;0.80;0.70;;;14.30;1.00;;;;;;6172739;23;20401;-82